createdAt,value
2022-12-27T00:00:09.331Z,2.90
2022-12-27T00:02:38.877Z,2.80
2022-12-27T00:05:06.551Z,2.80
2022-12-27T00:07:33.163Z,2.70
2022-12-27T00:09:59.718Z,2.70
2022-12-27T00:12:26.331Z,2.60
2022-12-27T00:14:52.875Z,2.60
2022-12-27T00:17:19.437Z,2.60
2022-12-27T00:19:45.985Z,2.70
2022-12-27T00:22:12.553Z,2.80
2022-12-27T00:24:39.187Z,2.70
2022-12-27T00:27:05.843Z,2.70
2022-12-27T00:29:32.380Z,2.70
2022-12-27T00:31:58.959Z,2.50
2022-12-27T00:34:25.570Z,2.50
2022-12-27T00:36:52.146Z,2.40
2022-12-27T00:39:18.807Z,2.30
2022-12-27T00:41:45.401Z,2.30
2022-12-27T00:44:11.947Z,2.30
2022-12-27T00:46:38.514Z,2.20
2022-12-27T00:49:05.124Z,2.20
2022-12-27T00:51:31.728Z,2.20
2022-12-27T00:53:58.284Z,2.20
2022-12-27T00:56:25.772Z,2.20
2022-12-27T00:58:53.196Z,2.20
2022-12-27T01:01:20.161Z,2.20
2022-12-27T01:03:46.850Z,2.20
2022-12-27T01:06:14.173Z,2.20
2022-12-27T01:08:40.767Z,2.20
2022-12-27T01:11:07.324Z,2.20
2022-12-27T01:13:33.964Z,2.20
2022-12-27T01:16:00.529Z,2.20
2022-12-27T01:18:27.186Z,2.20
2022-12-27T01:20:53.731Z,2.20
2022-12-27T01:23:20.291Z,2.10
2022-12-27T01:25:46.858Z,2.10
2022-12-27T01:28:13.446Z,2.10
2022-12-27T01:30:40.040Z,2.00
2022-12-27T01:33:06.600Z,2.00
2022-12-27T01:35:33.205Z,2.00
2022-12-27T01:37:59.779Z,1.90
2022-12-27T01:40:26.423Z,2.00
2022-12-27T01:42:53.046Z,1.90
2022-12-27T01:45:23.380Z,1.90
2022-12-27T01:48:05.240Z,1.90
2022-12-27T01:50:42.709Z,1.90
2022-12-27T01:53:25.577Z,1.80
2022-12-27T01:56:02.128Z,1.80
2022-12-27T01:58:29.421Z,1.80
2022-12-27T02:00:55.994Z,1.80
2022-12-27T02:03:22.550Z,1.80
2022-12-27T02:05:49.201Z,1.80
2022-12-27T02:08:34.721Z,1.80
2022-12-27T02:11:01.273Z,1.80
2022-12-27T02:13:28.343Z,1.80
2022-12-27T02:15:54.884Z,1.80
2022-12-27T02:18:21.469Z,1.80
2022-12-27T02:20:47.955Z,1.80
2022-12-27T02:23:52.250Z,1.70
2022-12-27T02:26:18.941Z,1.70
2022-12-27T02:29:04.052Z,1.70
2022-12-27T02:31:39.994Z,1.60
2022-12-27T02:34:09.501Z,1.60
2022-12-27T02:36:36.058Z,1.60
2022-12-27T02:39:02.590Z,1.80
2022-12-27T02:41:48.275Z,1.90
2022-12-27T02:44:33.963Z,2.00
2022-12-27T02:47:19.218Z,2.10
2022-12-27T02:50:04.576Z,2.20
2022-12-27T02:52:49.559Z,2.20
2022-12-27T02:55:29.963Z,2.30
2022-12-27T02:58:15.411Z,2.30
2022-12-27T03:01:05.126Z,2.40
2022-12-27T03:03:42.591Z,2.40
2022-12-27T03:06:37.381Z,2.40
2022-12-27T03:09:35.761Z,2.40
2022-12-27T03:12:22.368Z,2.40
2022-12-27T03:15:07.679Z,2.40
2022-12-27T03:17:35.840Z,2.40
2022-12-27T03:20:22.632Z,2.40
2022-12-27T03:23:07.946Z,2.30
2022-12-27T03:25:34.695Z,2.20
2022-12-27T03:28:20.990Z,2.20
2022-12-27T03:31:07.823Z,2.20
2022-12-27T03:33:34.487Z,2.20
2022-12-27T03:36:28.882Z,2.30
2022-12-27T03:38:58.482Z,2.30
2022-12-27T03:41:45.251Z,2.20
2022-12-27T03:44:27.201Z,2.20
2022-12-27T03:46:53.689Z,2.10
2022-12-27T03:49:23.289Z,2.00
2022-12-27T03:51:55.439Z,1.90
2022-12-27T03:54:27.243Z,1.80
2022-12-27T03:56:54.709Z,1.70
2022-12-27T03:59:21.273Z,1.70
2022-12-27T04:01:47.989Z,1.70
2022-12-27T04:04:14.615Z,1.70
2022-12-27T04:06:41.167Z,1.60
2022-12-27T04:09:27.499Z,1.60
2022-12-27T04:12:12.802Z,1.60
2022-12-27T04:14:58.180Z,1.60
2022-12-27T04:17:43.621Z,1.50
2022-12-27T04:20:28.962Z,1.50
2022-12-27T04:23:14.144Z,1.50
2022-12-27T04:25:59.492Z,1.50
2022-12-27T04:28:44.468Z,1.50
2022-12-27T04:31:29.629Z,1.50
2022-12-27T04:34:14.956Z,1.50
2022-12-27T04:36:41.507Z,1.50
2022-12-27T04:39:08.067Z,1.50
2022-12-27T04:41:53.486Z,1.50
2022-12-27T04:44:38.528Z,1.50
2022-12-27T04:47:23.761Z,1.50
2022-12-27T04:50:08.941Z,1.50
2022-12-27T04:52:54.372Z,1.50
2022-12-27T04:55:24.461Z,1.50
2022-12-27T04:57:51.381Z,1.50
2022-12-27T05:00:36.528Z,1.60
2022-12-27T05:03:04.421Z,1.60
2022-12-27T05:05:31.095Z,1.60
2022-12-27T05:08:17.955Z,1.60
2022-12-27T05:11:02.959Z,1.60
2022-12-27T05:13:48.426Z,1.60
2022-12-27T05:16:15.372Z,1.70
2022-12-27T05:18:42.038Z,1.70
2022-12-27T05:21:08.614Z,1.80
2022-12-27T05:23:54.201Z,1.80
2022-12-27T05:26:24.918Z,1.80
2022-12-27T05:28:51.922Z,1.80
2022-12-27T05:31:19.665Z,1.80
2022-12-27T05:33:46.329Z,1.80
2022-12-27T05:36:12.866Z,1.80
2022-12-27T05:38:39.461Z,1.80
2022-12-27T05:41:06.060Z,1.90
2022-12-27T05:43:32.652Z,1.90
2022-12-27T05:46:02.990Z,1.90
2022-12-27T05:48:29.548Z,1.90
2022-12-27T05:50:56.095Z,1.90
2022-12-27T05:53:22.674Z,2.00
2022-12-27T05:55:56.096Z,1.90
2022-12-27T05:58:22.671Z,2.00
2022-12-27T06:00:49.244Z,2.00
2022-12-27T06:03:15.906Z,2.10
2022-12-27T06:05:42.517Z,2.10
2022-12-27T06:08:09.468Z,2.20
2022-12-27T06:10:36.195Z,2.20
2022-12-27T06:13:02.957Z,2.30
2022-12-27T06:15:29.525Z,2.30
2022-12-27T06:17:56.209Z,2.40
2022-12-27T06:20:22.888Z,2.40
2022-12-27T06:22:49.431Z,2.50
2022-12-27T06:25:15.993Z,2.50
2022-12-27T06:27:42.533Z,2.50
2022-12-27T06:30:10.993Z,2.50
2022-12-27T06:32:37.699Z,2.40
2022-12-27T06:35:04.779Z,2.40
2022-12-27T06:37:31.342Z,2.40
2022-12-27T06:39:57.921Z,2.30
2022-12-27T06:42:24.478Z,2.40
2022-12-27T06:44:51.073Z,2.30
2022-12-27T06:47:17.612Z,2.30
2022-12-27T06:49:44.555Z,2.30
2022-12-27T06:52:11.274Z,2.40
2022-12-27T06:54:37.832Z,2.40
2022-12-27T06:57:04.370Z,2.50
2022-12-27T06:59:30.980Z,2.50
2022-12-27T07:01:57.651Z,2.50
2022-12-27T07:04:24.545Z,2.60
2022-12-27T07:06:51.081Z,2.60
2022-12-27T07:09:17.973Z,2.70
2022-12-27T07:11:45.484Z,2.80
2022-12-27T07:14:12.074Z,2.90
2022-12-27T07:16:38.747Z,2.90
2022-12-27T07:19:05.336Z,3.00
2022-12-27T07:21:32.075Z,3.10
2022-12-27T07:23:58.668Z,3.10
2022-12-27T07:26:29.822Z,3.10
2022-12-27T07:28:57.027Z,3.10
2022-12-27T07:31:24.492Z,3.20
2022-12-27T07:33:51.930Z,3.20
2022-12-27T07:36:19.328Z,3.30
2022-12-27T07:38:45.887Z,3.30
2022-12-27T07:41:12.517Z,3.30
2022-12-27T07:43:39.189Z,3.30
2022-12-27T07:46:13.347Z,3.30
2022-12-27T07:48:39.961Z,3.40
2022-12-27T07:51:06.498Z,3.50
2022-12-27T07:53:33.210Z,3.40
2022-12-27T07:55:59.989Z,3.50
2022-12-27T07:58:26.583Z,3.50
2022-12-27T08:00:53.304Z,3.60
2022-12-27T08:03:20.176Z,3.80
2022-12-27T08:05:52.429Z,4.00
2022-12-27T08:08:19.698Z,4.20
2022-12-27T08:10:46.245Z,4.20
2022-12-27T08:13:12.976Z,4.20
2022-12-27T08:15:40.431Z,4.20
2022-12-27T08:18:07.034Z,4.20
2022-12-27T08:20:33.644Z,4.20
2022-12-27T08:23:00.269Z,4.10
2022-12-27T08:25:27.704Z,4.10
2022-12-27T08:28:02.117Z,4.10
2022-12-27T08:30:28.765Z,4.00
2022-12-27T08:32:55.386Z,4.10
2022-12-27T08:35:51.727Z,4.20
2022-12-27T08:38:08.710Z,4.20
2022-12-27T08:40:35.378Z,4.20
2022-12-27T08:43:02.027Z,4.20
2022-12-27T08:45:28.600Z,4.20
2022-12-27T08:47:58.941Z,4.20
2022-12-27T08:50:25.825Z,4.30
2022-12-27T08:52:52.472Z,4.50
2022-12-27T08:55:19.287Z,4.60
2022-12-27T08:57:45.959Z,4.80
2022-12-27T09:00:12.877Z,4.90
2022-12-27T09:02:39.574Z,5.00
2022-12-27T09:05:06.241Z,5.00
2022-12-27T09:07:32.808Z,5.00
2022-12-27T09:09:59.387Z,4.90
2022-12-27T09:12:25.954Z,4.90
2022-12-27T09:14:52.548Z,5.00
2022-12-27T09:17:19.118Z,5.00
2022-12-27T09:19:45.746Z,5.10
2022-12-27T09:22:12.664Z,5.10
2022-12-27T09:24:39.223Z,5.20
2022-12-27T09:27:05.846Z,5.20
2022-12-27T09:29:32.482Z,5.40
2022-12-27T09:31:59.024Z,5.50
2022-12-27T09:34:25.601Z,5.70
2022-12-27T09:36:52.181Z,5.80
2022-12-27T09:39:18.749Z,6.00
2022-12-27T09:44:58.100Z,6.20
2022-12-27T09:48:00.085Z,6.40
2022-12-27T09:50:38.117Z,6.40
2022-12-27T09:53:17.330Z,6.40
2022-12-27T09:55:48.545Z,6.40
2022-12-27T09:58:27.557Z,6.30
2022-12-27T10:00:54.146Z,6.20
2022-12-27T10:03:22.016Z,6.20
2022-12-27T10:05:53.257Z,6.30
2022-12-27T10:08:26.192Z,6.50
2022-12-27T10:10:59.073Z,6.50
2022-12-27T10:13:31.875Z,6.60
2022-12-27T10:16:15.556Z,6.50
2022-12-27T10:18:44.811Z,6.60
2022-12-27T10:21:21.722Z,6.60
2022-12-27T10:23:56.179Z,6.80
2022-12-27T10:26:22.927Z,7.10
2022-12-27T10:29:02.537Z,7.40
2022-12-27T10:31:29.422Z,7.50
2022-12-27T10:33:56.068Z,7.60
2022-12-27T10:36:23.700Z,7.80
2022-12-27T10:38:50.251Z,7.90
2022-12-27T10:41:23.210Z,7.90
2022-12-27T10:43:51.724Z,7.90
2022-12-27T10:46:21.577Z,8.10
2022-12-27T10:49:20.724Z,8.10
2022-12-27T10:51:49.086Z,7.90
2022-12-27T10:54:16.409Z,7.90
2022-12-27T10:56:44.190Z,8.00
2022-12-27T10:59:16.450Z,8.00
2022-12-27T11:01:43.828Z,8.00
2022-12-27T11:04:20.296Z,7.80
2022-12-27T11:06:51.808Z,7.80
2022-12-27T11:09:20.648Z,7.70
2022-12-27T11:11:47.442Z,7.80
2022-12-27T11:14:17.680Z,7.90
2022-12-27T11:16:44.382Z,8.10
2022-12-27T11:19:19.514Z,8.20
2022-12-27T11:21:46.105Z,8.10
2022-12-27T11:24:13.951Z,8.00
2022-12-27T11:26:41.678Z,7.90
2022-12-27T11:29:12.644Z,7.90
2022-12-27T11:31:46.391Z,7.90
2022-12-27T11:34:16.312Z,7.70
2022-12-27T11:36:43.693Z,7.60
2022-12-27T11:39:30.243Z,7.70
2022-12-27T11:41:56.832Z,7.80
2022-12-27T11:44:29.927Z,7.90
2022-12-27T11:47:01.525Z,7.80
2022-12-27T11:49:32.379Z,7.70
2022-12-27T11:52:06.155Z,7.60
2022-12-27T11:54:47.288Z,7.50
2022-12-27T11:57:13.795Z,7.50
2022-12-27T11:59:43.662Z,7.60
2022-12-27T12:02:26.194Z,7.60
2022-12-27T12:05:08.079Z,7.70
2022-12-27T12:07:45.039Z,7.60
2022-12-27T12:10:30.382Z,7.60
2022-12-27T12:13:06.097Z,7.60
2022-12-27T12:15:45.611Z,7.60
2022-12-27T12:18:24.374Z,7.50
2022-12-27T12:20:57.074Z,7.60
2022-12-27T12:23:42.462Z,7.60
2022-12-27T12:26:11.067Z,7.60
2022-12-27T12:28:58.166Z,7.60
2022-12-27T12:31:44.404Z,7.50
2022-12-27T12:34:14.749Z,7.40
2022-12-27T12:36:50.662Z,7.40
2022-12-27T12:39:33.364Z,7.40
2022-12-27T12:42:20.123Z,7.30
2022-12-27T12:44:56.853Z,7.40
2022-12-27T12:47:26.544Z,7.40
2022-12-27T12:50:13.385Z,7.40
2022-12-27T12:52:59.156Z,7.40
2022-12-27T12:55:44.806Z,7.30
2022-12-27T12:58:15.839Z,7.20
2022-12-27T13:00:45.416Z,7.20
2022-12-27T13:03:35.766Z,7.10
2022-12-27T13:06:21.503Z,7.10
2022-12-27T13:08:52.167Z,7.10
2022-12-27T13:11:24.925Z,7.10
2022-12-27T13:14:06.948Z,7.10
2022-12-27T13:16:43.701Z,7.10
2022-12-27T13:19:13.339Z,7.10
2022-12-27T13:21:42.874Z,7.30
2022-12-27T13:24:12.232Z,7.30
2022-12-27T13:26:51.484Z,7.30
2022-12-27T13:29:27.807Z,7.30
2022-12-27T13:32:13.296Z,7.30
2022-12-27T13:34:42.917Z,7.40
2022-12-27T13:37:20.013Z,7.40
2022-12-27T13:39:49.212Z,7.40
2022-12-27T13:42:24.976Z,7.40
2022-12-27T13:45:01.126Z,7.40
2022-12-27T13:47:28.127Z,7.40
2022-12-27T13:50:10.054Z,7.40
2022-12-27T13:52:45.011Z,7.40
2022-12-27T13:55:15.684Z,7.40
2022-12-27T13:58:01.161Z,7.40
2022-12-27T14:00:40.205Z,7.40
2022-12-27T14:03:23.349Z,7.50
2022-12-27T14:06:03.179Z,7.40
2022-12-27T14:08:35.921Z,7.40
2022-12-27T14:11:02.562Z,7.40
2022-12-27T14:13:36.661Z,7.30
2022-12-27T14:16:12.471Z,7.20
2022-12-27T14:18:41.826Z,7.10
2022-12-27T14:21:26.725Z,7.10
2022-12-27T14:24:00.204Z,7.10
2022-12-27T14:26:32.775Z,7.00
2022-12-27T14:29:18.021Z,7.00
2022-12-27T14:32:04.877Z,6.90
2022-12-27T14:34:37.287Z,6.80
2022-12-27T14:37:12.630Z,6.80
2022-12-27T14:39:47.154Z,6.80
2022-12-27T14:42:16.781Z,6.80
2022-12-27T14:45:10.361Z,6.80
2022-12-27T14:47:48.345Z,6.70
2022-12-27T14:50:28.327Z,6.60
2022-12-27T14:53:13.854Z,6.60
2022-12-27T14:55:46.806Z,6.50
2022-12-27T14:58:26.781Z,6.40
2022-12-27T15:00:56.403Z,6.40
2022-12-27T15:03:41.657Z,6.30
2022-12-27T15:06:14.752Z,6.30
2022-12-27T15:08:50.764Z,6.20
2022-12-27T15:11:27.639Z,6.20
2022-12-27T15:13:54.174Z,6.20
2022-12-27T15:16:32.990Z,6.20
2022-12-27T15:19:05.657Z,6.10
2022-12-27T15:21:34.680Z,6.20
2022-12-27T15:24:23.898Z,6.20
2022-12-27T15:26:50.409Z,6.20
2022-12-27T15:29:36.019Z,6.20
2022-12-27T15:32:25.867Z,6.20
2022-12-27T15:35:07.843Z,6.20
2022-12-27T15:37:46.850Z,6.20
2022-12-27T15:40:31.927Z,6.20
2022-12-27T15:43:00.373Z,6.20
2022-12-27T15:45:27.055Z,6.20
2022-12-27T15:47:56.581Z,6.20
2022-12-27T15:50:34.775Z,6.10
2022-12-27T15:53:04.374Z,6.20
2022-12-27T15:55:37.864Z,6.10
2022-12-27T15:58:23.190Z,6.10
2022-12-27T16:01:08.536Z,6.00
2022-12-27T16:03:38.178Z,6.00
2022-12-27T16:06:07.758Z,5.90
2022-12-27T16:08:35.243Z,5.90
2022-12-27T16:11:02.847Z,6.00
2022-12-27T16:13:39.364Z,5.90
2022-12-27T16:16:33.359Z,5.90
2022-12-27T16:19:15.281Z,5.90
2022-12-27T16:21:42.951Z,5.80
2022-12-27T16:24:17.148Z,5.80
2022-12-27T16:26:47.988Z,5.80
2022-12-27T16:29:14.882Z,5.80
2022-12-27T16:31:45.675Z,5.80
2022-12-27T16:34:13.389Z,5.80
2022-12-27T16:36:43.459Z,5.80
2022-12-27T16:39:17.669Z,5.80
2022-12-27T16:41:56.553Z,5.80
2022-12-27T16:44:26.260Z,5.80
2022-12-27T16:46:55.843Z,5.70
2022-12-27T16:49:31.650Z,5.70
2022-12-27T16:52:13.431Z,5.80
2022-12-27T16:54:45.947Z,5.80
2022-12-27T16:57:25.090Z,5.70
2022-12-27T17:00:05.712Z,5.80
2022-12-27T17:02:32.838Z,5.70
2022-12-27T17:05:00.786Z,5.70
2022-12-27T17:07:41.147Z,5.70
2022-12-27T17:10:26.837Z,5.80
2022-12-27T17:12:54.035Z,5.70
2022-12-27T17:15:20.592Z,5.70
2022-12-27T17:17:47.173Z,5.70
2022-12-27T17:20:14.996Z,5.70
2022-12-27T17:22:41.811Z,5.70
2022-12-27T17:25:14.138Z,5.70
2022-12-27T17:27:44.098Z,5.60
2022-12-27T17:30:23.986Z,5.70
2022-12-27T17:33:01.666Z,5.60
2022-12-27T17:35:46.866Z,5.60
2022-12-27T17:38:36.864Z,5.60
2022-12-27T17:41:48.793Z,5.60
2022-12-27T17:44:37.634Z,5.60
2022-12-27T17:47:04.161Z,5.50
2022-12-27T17:49:31.132Z,5.50
2022-12-27T17:52:21.120Z,5.40
2022-12-27T17:55:06.306Z,5.40
2022-12-27T17:57:51.709Z,5.40
2022-12-27T18:00:25.270Z,5.40
2022-12-27T18:02:52.574Z,5.40
2022-12-27T18:05:22.086Z,5.30
2022-12-27T18:07:58.324Z,5.20
2022-12-27T18:10:25.702Z,5.20
2022-12-27T18:13:01.974Z,5.10
2022-12-27T18:15:29.718Z,5.10
2022-12-27T18:18:00.271Z,5.10
2022-12-27T18:20:27.116Z,5.00
2022-12-27T18:23:02.703Z,5.00
2022-12-27T18:25:33.139Z,5.00
2022-12-27T18:28:19.157Z,5.00
2022-12-27T18:31:06.004Z,5.00
2022-12-27T18:33:32.586Z,5.00
2022-12-27T18:35:59.611Z,4.90
2022-12-27T18:38:31.028Z,4.90
2022-12-27T18:41:05.089Z,4.80
2022-12-27T18:43:31.918Z,4.80
2022-12-27T18:45:58.533Z,4.80
2022-12-27T18:48:32.302Z,4.80
2022-12-27T18:50:59.163Z,4.80
2022-12-27T18:53:31.113Z,4.90
2022-12-27T18:56:01.845Z,4.80
2022-12-27T18:58:28.431Z,4.80
2022-12-27T19:01:24.509Z,4.90
2022-12-27T19:04:10.063Z,4.80
2022-12-27T19:06:36.614Z,4.90
2022-12-27T19:09:03.236Z,4.80
2022-12-27T19:11:36.068Z,4.90
2022-12-27T19:14:04.913Z,4.90
2022-12-27T19:16:34.455Z,4.90
2022-12-27T19:19:07.562Z,5.00
2022-12-27T19:21:35.240Z,4.90
2022-12-27T19:24:21.903Z,4.90
2022-12-27T19:26:48.508Z,5.00
2022-12-27T19:29:16.349Z,4.90
2022-12-27T19:31:43.971Z,4.90
2022-12-27T19:34:13.623Z,4.90
2022-12-27T19:36:40.707Z,4.90
2022-12-27T19:39:09.472Z,4.90
2022-12-27T19:41:38.184Z,4.90
2022-12-27T19:44:05.564Z,4.90
2022-12-27T19:46:32.208Z,4.90
2022-12-27T19:51:46.649Z,4.90
2022-12-27T19:54:14.466Z,4.90
2022-12-27T19:56:41.063Z,4.80
2022-12-27T19:59:11.977Z,4.80
2022-12-27T20:01:38.629Z,4.80
2022-12-27T20:04:05.269Z,4.80
2022-12-27T20:06:31.818Z,4.80
2022-12-27T20:08:58.381Z,4.80
2022-12-27T20:11:26.288Z,4.80
2022-12-27T20:13:52.873Z,4.80
2022-12-27T20:16:19.564Z,4.80
2022-12-27T20:18:46.215Z,4.80
2022-12-27T20:21:13.360Z,4.80
2022-12-27T20:23:39.956Z,4.80
2022-12-27T20:26:06.569Z,4.80
2022-12-27T20:28:33.146Z,4.80
2022-12-27T20:30:59.748Z,4.80
2022-12-27T20:33:26.323Z,4.80
2022-12-27T20:35:57.269Z,4.80
2022-12-27T20:38:24.088Z,4.70
2022-12-27T20:40:50.660Z,4.80
2022-12-27T20:43:18.387Z,4.70
2022-12-27T20:45:45.361Z,4.80
2022-12-27T20:48:12.233Z,4.70
2022-12-27T20:50:39.210Z,4.70
2022-12-27T20:53:05.953Z,4.70
2022-12-27T20:55:35.602Z,4.70
2022-12-27T20:58:02.145Z,4.70
2022-12-27T21:00:28.707Z,4.70
2022-12-27T21:02:55.461Z,4.70
2022-12-27T21:05:22.128Z,4.70
2022-12-27T21:07:48.665Z,4.60
2022-12-27T21:10:15.245Z,4.60
2022-12-27T21:12:41.792Z,4.60
2022-12-27T21:15:08.598Z,4.50
2022-12-27T21:17:35.246Z,4.50
2022-12-27T21:20:02.009Z,4.50
2022-12-27T21:22:28.547Z,4.40
2022-12-27T21:24:55.099Z,4.40
2022-12-27T21:27:21.644Z,4.40
2022-12-27T21:29:48.228Z,4.30
2022-12-27T21:32:14.832Z,4.30
2022-12-27T21:34:41.441Z,4.40
2022-12-27T21:37:13.045Z,4.40
2022-12-27T21:39:40.182Z,4.40
2022-12-27T21:42:06.765Z,4.40
2022-12-27T21:44:35.310Z,4.40
2022-12-27T21:47:01.901Z,4.40
2022-12-27T21:49:28.478Z,4.30
2022-12-27T21:51:55.673Z,4.40
2022-12-27T21:54:22.300Z,4.40
2022-12-27T21:56:48.852Z,4.30
2022-12-27T21:59:15.482Z,4.30
2022-12-27T22:01:50.670Z,4.20
2022-12-27T22:04:22.311Z,4.20
2022-12-27T22:06:49.051Z,4.20
2022-12-27T22:09:15.642Z,4.20
2022-12-27T22:11:42.262Z,4.20
2022-12-27T22:14:08.860Z,4.10
2022-12-27T22:16:36.089Z,4.10
2022-12-27T22:19:04.876Z,4.10
2022-12-27T22:21:31.937Z,4.10
2022-12-27T22:23:59.058Z,4.00
2022-12-27T22:26:30.221Z,4.10
2022-12-27T22:28:56.769Z,4.10
2022-12-27T22:31:24.537Z,4.10
2022-12-27T22:33:51.139Z,4.10
2022-12-27T22:36:18.841Z,4.10
2022-12-27T22:38:49.471Z,4.20
2022-12-27T22:41:16.418Z,4.20
2022-12-27T22:43:43.340Z,4.20
2022-12-27T22:46:10.732Z,4.20
2022-12-27T22:48:37.394Z,4.10
2022-12-27T22:51:07.870Z,4.10
2022-12-27T22:53:34.508Z,4.10
2022-12-27T22:56:01.074Z,4.10
2022-12-27T22:58:31.444Z,4.00
2022-12-27T23:00:58.242Z,4.00
2022-12-27T23:03:24.790Z,3.90
2022-12-27T23:06:00.647Z,3.90
2022-12-27T23:08:27.420Z,3.80
2022-12-27T23:10:54.030Z,3.80
2022-12-27T23:13:22.283Z,3.80
2022-12-27T23:16:01.327Z,3.80
2022-12-27T23:18:27.959Z,3.70
2022-12-27T23:21:21.523Z,3.70
2022-12-27T23:23:41.794Z,3.70
2022-12-27T23:26:09.529Z,3.70
2022-12-27T23:28:36.973Z,3.60
2022-12-27T23:31:04.187Z,3.60
2022-12-27T23:33:30.861Z,3.60
2022-12-27T23:35:57.507Z,3.60
2022-12-27T23:38:24.055Z,3.60
2022-12-27T23:40:54.651Z,3.60
2022-12-27T23:43:51.140Z,3.60
2022-12-27T23:46:08.343Z,3.70
2022-12-27T23:48:35.036Z,3.60
2022-12-27T23:51:01.687Z,3.70
2022-12-27T23:53:28.221Z,3.70
2022-12-27T23:55:57.864Z,3.70
2022-12-27T23:58:24.468Z,3.70
